sensor_id;sensor_type;location;lat;lon;timestamp;temperature;humidity
4429;DHT22;2227;47.810;8.810;2023-03-23T04:49:13;11.10;99.90
4429;DHT22;2227;47.810;8.810;2023-03-23T04:51:40;11.20;99.90
4429;DHT22;2227;47.810;8.810;2023-03-23T04:54:05;11.10;99.90
4429;DHT22;2227;47.810;8.810;2023-03-23T04:56:31;11.10;99.90
4429;DHT22;2227;47.810;8.810;2023-03-23T04:58:56;11.10;99.90
4429;DHT22;2227;47.810;8.810;2023-03-23T05:01:22;10.90;99.90
4429;DHT22;2227;47.810;8.810;2023-03-23T05:03:48;10.80;99.90
4429;DHT22;2227;47.810;8.810;2023-03-23T05:06:13;10.60;99.90
4429;DHT22;2227;47.810;8.810;2023-03-23T05:08:39;10.20;99.90
4429;DHT22;2227;47.810;8.810;2023-03-23T05:11:06;10.20;99.90
4429;DHT22;2227;47.810;8.810;2023-03-23T05:13:32;10.00;99.90
4429;DHT22;2227;47.810;8.810;2023-03-23T05:15:58;10.00;99.90
4429;DHT22;2227;47.810;8.810;2023-03-23T05:18:24;10.00;99.90
4429;DHT22;2227;47.810;8.810;2023-03-23T05:20:49;10.00;99.90
4429;DHT22;2227;47.810;8.810;2023-03-23T05:23:18;10.10;99.90
4429;DHT22;2227;47.810;8.810;2023-03-23T05:25:53;10.00;99.90
4429;DHT22;2227;47.810;8.810;2023-03-23T05:28:19;9.80;99.90
4429;DHT22;2227;47.810;8.810;2023-03-23T05:30:47;10.00;99.90
4429;DHT22;2227;47.810;8.810;2023-03-23T05:33:13;10.10;99.90
4429;DHT22;2227;47.810;8.810;2023-03-23T05:35:39;10.30;99.90
4429;DHT22;2227;47.810;8.810;2023-03-23T05:38:05;10.50;99.90
4429;DHT22;2227;47.810;8.810;2023-03-23T05:40:30;10.60;99.90
4429;DHT22;2227;47.810;8.810;2023-03-23T05:42:56;10.70;99.90
4429;DHT22;2227;47.810;8.810;2023-03-23T05:45:24;10.80;99.90
4429;DHT22;2227;47.810;8.810;2023-03-23T05:47:50;10.80;99.90
4429;DHT22;2227;47.810;8.810;2023-03-23T05:50:16;10.90;99.90
4429;DHT22;2227;47.810;8.810;2023-03-23T05:52:42;11.00;99.90
4429;DHT22;2227;47.810;8.810;2023-03-23T05:55:09;11.10;99.90
4429;DHT22;2227;47.810;8.810;2023-03-23T05:57:35;11.20;99.90
4429;DHT22;2227;47.810;8.810;2023-03-23T06:00:01;11.20;99.90
4429;DHT22;2227;47.810;8.810;2023-03-23T06:02:39;11.10;99.90
4429;DHT22;2227;47.810;8.810;2023-03-23T06:05:05;11.10;99.90
4429;DHT22;2227;47.810;8.810;2023-03-23T06:07:32;11.10;99.90
4429;DHT22;2227;47.810;8.810;2023-03-23T06:09:57;11.20;99.90
4429;DHT22;2227;47.810;8.810;2023-03-23T06:12:23;11.40;99.90
4429;DHT22;2227;47.810;8.810;2023-03-23T06:14:50;11.50;99.90
4429;DHT22;2227;47.810;8.810;2023-03-23T06:17:16;11.50;99.90
4429;DHT22;2227;47.810;8.810;2023-03-23T06:19:43;11.60;99.90
4429;DHT22;2227;47.810;8.810;2023-03-23T06:22:09;11.60;99.90
4429;DHT22;2227;47.810;8.810;2023-03-23T06:24:36;11.70;99.90
4429;DHT22;2227;47.810;8.810;2023-03-23T06:27:01;11.70;99.90
4429;DHT22;2227;47.810;8.810;2023-03-23T06:29:27;11.60;99.90
4429;DHT22;2227;47.810;8.810;2023-03-23T06:31:59;11.70;99.90
4429;DHT22;2227;47.810;8.810;2023-03-23T06:34:25;11.70;99.90
4429;DHT22;2227;47.810;8.810;2023-03-23T06:36:51;11.80;99.90
4429;DHT22;2227;47.810;8.810;2023-03-23T06:39:17;11.90;99.90
4429;DHT22;2227;47.810;8.810;2023-03-23T06:41:43;12.00;99.90
4429;DHT22;2227;47.810;8.810;2023-03-23T06:44:09;12.10;99.90
4429;DHT22;2227;47.810;8.810;2023-03-23T06:46:39;12.10;99.90
4429;DHT22;2227;47.810;8.810;2023-03-23T06:49:05;11.90;99.90
4429;DHT22;2227;47.810;8.810;2023-03-23T06:51:31;11.80;99.90
4429;DHT22;2227;47.810;8.810;2023-03-23T06:53:56;11.60;99.90
4429;DHT22;2227;47.810;8.810;2023-03-23T06:56:23;11.60;99.90
4429;DHT22;2227;47.810;8.810;2023-03-23T06:58:49;11.90;99.90
4429;DHT22;2227;47.810;8.810;2023-03-23T07:01:15;12.10;99.90
4429;DHT22;2227;47.810;8.810;2023-03-23T07:03:41;12.20;99.90
4429;DHT22;2227;47.810;8.810;2023-03-23T07:06:08;12.50;99.90
4429;DHT22;2227;47.810;8.810;2023-03-23T07:08:34;12.70;99.90
4429;DHT22;2227;47.810;8.810;2023-03-23T07:10:59;12.90;99.90
4429;DHT22;2227;47.810;8.810;2023-03-23T07:13:25;13.10;99.90
4429;DHT22;2227;47.810;8.810;2023-03-23T07:15:52;13.20;99.90
4429;DHT22;2227;47.810;8.810;2023-03-23T07:18:18;13.50;99.90
4429;DHT22;2227;47.810;8.810;2023-03-23T07:20:50;13.70;99.90
4429;DHT22;2227;47.810;8.810;2023-03-23T07:23:17;13.80;99.90
4429;DHT22;2227;47.810;8.810;2023-03-23T07:25:43;14.10;99.90
4429;DHT22;2227;47.810;8.810;2023-03-23T07:28:08;14.40;99.90
4429;DHT22;2227;47.810;8.810;2023-03-23T07:30:34;14.50;99.90
4429;DHT22;2227;47.810;8.810;2023-03-23T07:33:04;14.70;99.90
4429;DHT22;2227;47.810;8.810;2023-03-23T07:35:30;14.60;99.90
4429;DHT22;2227;47.810;8.810;2023-03-23T07:37:56;14.60;99.90
4429;DHT22;2227;47.810;8.810;2023-03-23T07:40:22;14.70;99.90
4429;DHT22;2227;47.810;8.810;2023-03-23T07:42:55;15.00;99.90
4429;DHT22;2227;47.810;8.810;2023-03-23T07:45:22;15.30;99.90
4429;DHT22;2227;47.810;8.810;2023-03-23T07:47:48;15.40;99.90
4429;DHT22;2227;47.810;8.810;2023-03-23T07:50:14;15.60;99.90
4429;DHT22;2227;47.810;8.810;2023-03-23T07:52:40;15.60;99.90
4429;DHT22;2227;47.810;8.810;2023-03-23T07:55:09;15.50;99.90
4429;DHT22;2227;47.810;8.810;2023-03-23T07:57:46;15.30;99.90
4429;DHT22;2227;47.810;8.810;2023-03-23T08:00:15;15.50;99.90
4429;DHT22;2227;47.810;8.810;2023-03-23T08:02:47;15.50;99.90
4429;DHT22;2227;47.810;8.810;2023-03-23T08:05:14;15.30;99.90
4429;DHT22;2227;47.810;8.810;2023-03-23T08:07:41;15.20;99.90
4429;DHT22;2227;47.810;8.810;2023-03-23T08:10:08;15.30;99.90
4429;DHT22;2227;47.810;8.810;2023-03-23T08:12:41;15.30;99.90
4429;DHT22;2227;47.810;8.810;2023-03-23T08:15:08;15.40;99.90
4429;DHT22;2227;47.810;8.810;2023-03-23T08:17:34;15.60;99.90
4429;DHT22;2227;47.810;8.810;2023-03-23T08:20:00;15.80;99.90
4429;DHT22;2227;47.810;8.810;2023-03-23T08:22:26;15.70;99.90
4429;DHT22;2227;47.810;8.810;2023-03-23T08:24:54;15.80;99.90
4429;DHT22;2227;47.810;8.810;2023-03-23T08:27:21;15.80;99.90
4429;DHT22;2227;47.810;8.810;2023-03-23T08:29:47;16.00;99.90
4429;DHT22;2227;47.810;8.810;2023-03-23T08:32:13;16.00;99.90
4429;DHT22;2227;47.810;8.810;2023-03-23T08:34:40;15.80;99.90
4429;DHT22;2227;47.810;8.810;2023-03-23T08:37:07;15.70;99.90
4429;DHT22;2227;47.810;8.810;2023-03-23T08:39:33;15.90;99.90
4429;DHT22;2227;47.810;8.810;2023-03-23T08:41:59;16.20;99.90
4429;DHT22;2227;47.810;8.810;2023-03-23T08:44:24;16.30;99.90
4429;DHT22;2227;47.810;8.810;2023-03-23T08:46:50;16.30;99.90
4429;DHT22;2227;47.810;8.810;2023-03-23T08:49:20;16.50;99.90
4429;DHT22;2227;47.810;8.810;2023-03-23T08:51:46;16.70;99.90
4429;DHT22;2227;47.810;8.810;2023-03-23T08:54:12;16.80;99.90
4429;DHT22;2227;47.810;8.810;2023-03-23T08:56:37;17.00;99.90
4429;DHT22;2227;47.810;8.810;2023-03-23T08:59:03;17.00;99.90
4429;DHT22;2227;47.810;8.810;2023-03-23T09:01:29;16.50;99.90
4429;DHT22;2227;47.810;8.810;2023-03-23T09:03:54;16.40;99.90
4429;DHT22;2227;47.810;8.810;2023-03-23T09:06:20;16.30;99.90
4429;DHT22;2227;47.810;8.810;2023-03-23T09:08:45;16.60;99.90
4429;DHT22;2227;47.810;8.810;2023-03-23T09:11:11;16.80;99.90
4429;DHT22;2227;47.810;8.810;2023-03-23T09:13:38;17.10;99.90
4429;DHT22;2227;47.810;8.810;2023-03-23T09:16:05;17.50;99.50
4429;DHT22;2227;47.810;8.810;2023-03-23T09:18:32;17.40;98.70
4429;DHT22;2227;47.810;8.810;2023-03-23T09:20:59;17.50;98.90
4429;DHT22;2227;47.810;8.810;2023-03-23T09:23:26;18.20;98.60
4429;DHT22;2227;47.810;8.810;2023-03-23T09:25:52;19.20;96.70
4429;DHT22;2227;47.810;8.810;2023-03-23T09:28:18;19.60;95.20
4429;DHT22;2227;47.810;8.810;2023-03-23T09:30:45;19.30;94.50
4429;DHT22;2227;47.810;8.810;2023-03-23T09:33:11;18.90;95.60
4429;DHT22;2227;47.810;8.810;2023-03-23T09:35:37;18.90;95.40
4429;DHT22;2227;47.810;8.810;2023-03-23T09:38:04;18.70;95.40
4429;DHT22;2227;47.810;8.810;2023-03-23T09:40:42;18.70;95.60
4429;DHT22;2227;47.810;8.810;2023-03-23T09:46:30;18.00;96.40
4429;DHT22;2227;47.810;8.810;2023-03-23T09:49:18;17.60;96.90
4429;DHT22;2227;47.810;8.810;2023-03-23T09:51:57;17.30;97.40
4429;DHT22;2227;47.810;8.810;2023-03-23T09:54:37;17.50;97.30
4429;DHT22;2227;47.810;8.810;2023-03-23T09:57:10;17.60;96.50
4429;DHT22;2227;47.810;8.810;2023-03-23T10:02:24;17.20;96.60
4429;DHT22;2227;47.810;8.810;2023-03-23T10:04:54;17.40;96.70
4429;DHT22;2227;47.810;8.810;2023-03-23T10:07:22;17.20;96.50
4429;DHT22;2227;47.810;8.810;2023-03-23T10:09:53;17.20;96.60
4429;DHT22;2227;47.810;8.810;2023-03-23T10:15:33;18.00;95.90
4429;DHT22;2227;47.810;8.810;2023-03-23T10:18:02;18.20;94.90
4429;DHT22;2227;47.810;8.810;2023-03-23T10:23:34;18.80;95.10
4429;DHT22;2227;47.810;8.810;2023-03-23T10:28:55;18.60;93.50
4429;DHT22;2227;47.810;8.810;2023-03-23T10:31:26;18.60;93.50
4429;DHT22;2227;47.810;8.810;2023-03-23T10:33:57;18.40;93.90
4429;DHT22;2227;47.810;8.810;2023-03-23T10:36:26;18.10;94.30
4429;DHT22;2227;47.810;8.810;2023-03-23T10:39:13;18.20;93.40
4429;DHT22;2227;47.810;8.810;2023-03-23T10:41:40;18.60;93.50
4429;DHT22;2227;47.810;8.810;2023-03-23T10:44:24;18.70;92.40
4429;DHT22;2227;47.810;8.810;2023-03-23T10:47:03;18.60;92.70
4429;DHT22;2227;47.810;8.810;2023-03-23T10:49:40;18.40;93.40
4429;DHT22;2227;47.810;8.810;2023-03-23T10:54:39;17.80;94.10
4429;DHT22;2227;47.810;8.810;2023-03-23T10:57:25;17.80;93.90
4429;DHT22;2227;47.810;8.810;2023-03-23T11:02:31;17.80;94.20
4429;DHT22;2227;47.810;8.810;2023-03-23T11:05:04;17.80;93.80
4429;DHT22;2227;47.810;8.810;2023-03-23T11:07:34;17.50;93.80
4429;DHT22;2227;47.810;8.810;2023-03-23T11:10:55;17.60;94.20
4429;DHT22;2227;47.810;8.810;2023-03-23T11:13:14;17.60;94.80
4429;DHT22;2227;47.810;8.810;2023-03-23T11:15:43;17.60;94.70
4429;DHT22;2227;47.810;8.810;2023-03-23T11:18:12;17.90;94.80
4429;DHT22;2227;47.810;8.810;2023-03-23T11:20:43;17.90;94.50
4429;DHT22;2227;47.810;8.810;2023-03-23T11:23:22;17.90;94.00
4429;DHT22;2227;47.810;8.810;2023-03-23T11:26:11;18.00;94.40
4429;DHT22;2227;47.810;8.810;2023-03-23T11:28:43;18.60;94.70
4429;DHT22;2227;47.810;8.810;2023-03-23T11:31:10;18.70;93.10
4429;DHT22;2227;47.810;8.810;2023-03-23T11:36:16;19.00;92.10
4429;DHT22;2227;47.810;8.810;2023-03-23T11:38:43;18.70;92.40
4429;DHT22;2227;47.810;8.810;2023-03-23T11:41:17;18.70;92.70
4429;DHT22;2227;47.810;8.810;2023-03-23T11:43:46;18.70;91.90
4429;DHT22;2227;47.810;8.810;2023-03-23T11:46:33;18.50;92.50
4429;DHT22;2227;47.810;8.810;2023-03-23T11:49:03;18.80;92.20
4429;DHT22;2227;47.810;8.810;2023-03-23T11:51:39;19.30;91.60
4429;DHT22;2227;47.810;8.810;2023-03-23T11:54:18;19.40;91.60
4429;DHT22;2227;47.810;8.810;2023-03-23T11:56:45;19.20;91.40
4429;DHT22;2227;47.810;8.810;2023-03-23T11:59:26;19.10;92.00
4429;DHT22;2227;47.810;8.810;2023-03-23T12:07:58;18.30;93.50
4429;DHT22;2227;47.810;8.810;2023-03-23T12:13:09;18.30;93.10
4429;DHT22;2227;47.810;8.810;2023-03-23T12:23:23;18.20;93.50
4429;DHT22;2227;47.810;8.810;2023-03-23T12:31:56;17.90;93.90
4429;DHT22;2227;47.810;8.810;2023-03-23T12:37:40;18.10;93.20
4429;DHT22;2227;47.810;8.810;2023-03-23T12:40:31;18.00;93.30
4429;DHT22;2227;47.810;8.810;2023-03-23T12:43:04;18.30;93.20
4429;DHT22;2227;47.810;8.810;2023-03-23T12:48:23;18.50;92.90
4429;DHT22;2227;47.810;8.810;2023-03-23T12:56:32;18.90;92.10
4429;DHT22;2227;47.810;8.810;2023-03-23T13:01:40;19.10;92.40
4429;DHT22;2227;47.810;8.810;2023-03-23T13:04:20;19.00;91.90
4429;DHT22;2227;47.810;8.810;2023-03-23T13:06:47;18.80;92.00
4429;DHT22;2227;47.810;8.810;2023-03-23T13:09:32;18.50;92.60
4429;DHT22;2227;47.810;8.810;2023-03-23T13:12:03;18.20;92.60
4429;DHT22;2227;47.810;8.810;2023-03-23T13:17:21;17.70;94.20
4429;DHT22;2227;47.810;8.810;2023-03-23T13:20:04;17.70;94.70
4429;DHT22;2227;47.810;8.810;2023-03-23T13:28:25;17.60;94.80
4429;DHT22;2227;47.810;8.810;2023-03-23T13:30:58;17.50;94.80
4429;DHT22;2227;47.810;8.810;2023-03-23T13:33:28;17.60;95.10
4429;DHT22;2227;47.810;8.810;2023-03-23T13:35:54;17.50;95.00
4429;DHT22;2227;47.810;8.810;2023-03-23T13:38:27;17.70;95.60
4429;DHT22;2227;47.810;8.810;2023-03-23T13:40:56;17.90;95.30
4429;DHT22;2227;47.810;8.810;2023-03-23T13:43:42;17.80;95.30
4429;DHT22;2227;47.810;8.810;2023-03-23T13:48:49;17.90;96.00
4429;DHT22;2227;47.810;8.810;2023-03-23T13:54:20;18.00;95.40
4429;DHT22;2227;47.810;8.810;2023-03-23T14:01:53;17.80;95.20
4429;DHT22;2227;47.810;8.810;2023-03-23T14:04:20;17.80;94.60
4429;DHT22;2227;47.810;8.810;2023-03-23T14:06:48;17.70;94.40
4429;DHT22;2227;47.810;8.810;2023-03-23T14:09:33;17.90;95.00
4429;DHT22;2227;47.810;8.810;2023-03-23T14:12:03;17.80;94.80
4429;DHT22;2227;47.810;8.810;2023-03-23T14:14:47;17.70;94.80
4429;DHT22;2227;47.810;8.810;2023-03-23T14:17:23;17.70;95.20
4429;DHT22;2227;47.810;8.810;2023-03-23T14:19:54;17.80;95.30
4429;DHT22;2227;47.810;8.810;2023-03-23T14:22:32;18.10;94.50
4429;DHT22;2227;47.810;8.810;2023-03-23T14:25:18;18.30;94.30
4429;DHT22;2227;47.810;8.810;2023-03-23T14:27:46;18.70;94.10
4429;DHT22;2227;47.810;8.810;2023-03-23T14:30:21;18.80;93.60
4429;DHT22;2227;47.810;8.810;2023-03-23T14:32:47;18.70;93.20
4429;DHT22;2227;47.810;8.810;2023-03-23T14:35:31;18.60;93.70
4429;DHT22;2227;47.810;8.810;2023-03-23T14:37:57;18.30;93.10
4429;DHT22;2227;47.810;8.810;2023-03-23T14:40:26;18.00;94.20
4429;DHT22;2227;47.810;8.810;2023-03-23T14:42:52;18.10;93.90
4429;DHT22;2227;47.810;8.810;2023-03-23T14:45:20;17.90;94.30
4429;DHT22;2227;47.810;8.810;2023-03-23T14:48:01;18.10;94.20
4429;DHT22;2227;47.810;8.810;2023-03-23T14:50:35;17.90;94.40
4429;DHT22;2227;47.810;8.810;2023-03-23T14:53:26;18.00;94.50
4429;DHT22;2227;47.810;8.810;2023-03-23T14:55:54;18.20;94.40
4429;DHT22;2227;47.810;8.810;2023-03-23T14:58:23;18.30;94.50
4429;DHT22;2227;47.810;8.810;2023-03-23T15:03:20;18.80;94.10
4429;DHT22;2227;47.810;8.810;2023-03-23T15:05:50;18.90;93.20
4429;DHT22;2227;47.810;8.810;2023-03-23T15:08:27;18.90;93.10
4429;DHT22;2227;47.810;8.810;2023-03-23T15:13:28;18.40;93.80
4429;DHT22;2227;47.810;8.810;2023-03-23T15:16:05;18.10;94.20
4429;DHT22;2227;47.810;8.810;2023-03-23T15:18:51;17.80;94.80
4429;DHT22;2227;47.810;8.810;2023-03-23T15:21:22;17.70;94.50
4429;DHT22;2227;47.810;8.810;2023-03-23T15:23:48;17.60;95.40
4429;DHT22;2227;47.810;8.810;2023-03-23T15:26:41;17.50;94.80
4429;DHT22;2227;47.810;8.810;2023-03-23T15:31:33;17.30;95.10
4429;DHT22;2227;47.810;8.810;2023-03-23T15:34:03;17.30;95.40
4429;DHT22;2227;47.810;8.810;2023-03-23T15:36:33;17.20;95.30
4429;DHT22;2227;47.810;8.810;2023-03-23T15:38:59;17.30;95.10
4429;DHT22;2227;47.810;8.810;2023-03-23T15:41:31;17.40;95.40
4429;DHT22;2227;47.810;8.810;2023-03-23T15:44:11;17.20;95.30
4429;DHT22;2227;47.810;8.810;2023-03-23T15:46:48;17.10;95.70
4429;DHT22;2227;47.810;8.810;2023-03-23T15:49:15;17.20;95.50
4429;DHT22;2227;47.810;8.810;2023-03-23T15:51:42;17.20;95.50
4429;DHT22;2227;47.810;8.810;2023-03-23T15:54:12;17.40;95.30
4429;DHT22;2227;47.810;8.810;2023-03-23T15:56:39;17.10;95.90
4429;DHT22;2227;47.810;8.810;2023-03-23T15:59:04;17.50;95.20
4429;DHT22;2227;47.810;8.810;2023-03-23T16:01:31;17.50;95.20
4429;DHT22;2227;47.810;8.810;2023-03-23T16:04:08;17.60;95.10
4429;DHT22;2227;47.810;8.810;2023-03-23T16:06:36;17.70;94.80
4429;DHT22;2227;47.810;8.810;2023-03-23T16:09:04;17.80;95.00
4429;DHT22;2227;47.810;8.810;2023-03-23T16:11:32;17.90;94.70
4429;DHT22;2227;47.810;8.810;2023-03-23T16:14:00;17.90;94.60
4429;DHT22;2227;47.810;8.810;2023-03-23T16:16:28;18.00;94.70
4429;DHT22;2227;47.810;8.810;2023-03-23T16:18:56;18.00;94.30
4429;DHT22;2227;47.810;8.810;2023-03-23T16:21:23;18.00;94.70
4429;DHT22;2227;47.810;8.810;2023-03-23T16:23:50;18.00;94.60
4429;DHT22;2227;47.810;8.810;2023-03-23T16:26:17;18.20;94.20
4429;DHT22;2227;47.810;8.810;2023-03-23T16:28:44;18.30;94.10
4429;DHT22;2227;47.810;8.810;2023-03-23T16:31:11;18.30;93.90
4429;DHT22;2227;47.810;8.810;2023-03-23T16:33:38;18.40;93.90
4429;DHT22;2227;47.810;8.810;2023-03-23T16:36:05;18.30;93.80
4429;DHT22;2227;47.810;8.810;2023-03-23T16:38:32;18.20;93.90
4429;DHT22;2227;47.810;8.810;2023-03-23T16:41:15;18.00;94.10
4429;DHT22;2227;47.810;8.810;2023-03-23T16:43:42;18.20;93.90
4429;DHT22;2227;47.810;8.810;2023-03-23T16:46:09;18.30;93.80
4429;DHT22;2227;47.810;8.810;2023-03-23T16:48:36;18.20;93.90
4429;DHT22;2227;47.810;8.810;2023-03-23T16:51:03;18.20;93.80
4429;DHT22;2227;47.810;8.810;2023-03-23T16:53:30;17.90;94.10
4429;DHT22;2227;47.810;8.810;2023-03-23T16:55:58;18.10;93.80
4429;DHT22;2227;47.810;8.810;2023-03-23T16:58:24;18.10;93.70
4429;DHT22;2227;47.810;8.810;2023-03-23T17:00:51;18.10;93.70
4429;DHT22;2227;47.810;8.810;2023-03-23T17:03:19;17.90;94.00
4429;DHT22;2227;47.810;8.810;2023-03-23T17:05:48;17.80;94.10
4429;DHT22;2227;47.810;8.810;2023-03-23T17:08:16;17.80;93.60
4429;DHT22;2227;47.810;8.810;2023-03-23T17:10:43;17.80;94.00
4429;DHT22;2227;47.810;8.810;2023-03-23T17:13:11;17.80;93.70
4429;DHT22;2227;47.810;8.810;2023-03-23T17:15:42;17.70;93.90
4429;DHT22;2227;47.810;8.810;2023-03-23T17:18:13;17.80;93.90
4429;DHT22;2227;47.810;8.810;2023-03-23T17:20:39;17.80;93.70
4429;DHT22;2227;47.810;8.810;2023-03-23T17:23:06;17.60;93.80
4429;DHT22;2227;47.810;8.810;2023-03-23T17:25:33;17.50;94.10
4429;DHT22;2227;47.810;8.810;2023-03-23T17:28:00;17.60;94.00
4429;DHT22;2227;47.810;8.810;2023-03-23T17:30:33;17.60;94.00
4429;DHT22;2227;47.810;8.810;2023-03-23T17:33:00;17.70;93.90
4429;DHT22;2227;47.810;8.810;2023-03-23T17:35:26;17.60;93.70
4429;DHT22;2227;47.810;8.810;2023-03-23T17:37:53;17.60;93.60
4429;DHT22;2227;47.810;8.810;2023-03-23T17:40:20;17.50;93.90
4429;DHT22;2227;47.810;8.810;2023-03-23T17:42:47;17.40;93.80
4429;DHT22;2227;47.810;8.810;2023-03-23T17:45:13;17.40;93.90
4429;DHT22;2227;47.810;8.810;2023-03-23T17:47:40;17.40;94.20
4429;DHT22;2227;47.810;8.810;2023-03-23T17:50:08;17.40;94.20
4429;DHT22;2227;47.810;8.810;2023-03-23T17:52:38;17.50;94.10
4429;DHT22;2227;47.810;8.810;2023-03-23T17:55:06;17.60;93.70
4429;DHT22;2227;47.810;8.810;2023-03-23T17:57:32;17.70;93.40
4429;DHT22;2227;47.810;8.810;2023-03-23T18:00:00;17.50;93.60
4429;DHT22;2227;47.810;8.810;2023-03-23T18:02:27;17.30;93.70
4429;DHT22;2227;47.810;8.810;2023-03-23T18:04:56;17.00;94.10
4429;DHT22;2227;47.810;8.810;2023-03-23T18:07:25;16.90;94.30
4429;DHT22;2227;47.810;8.810;2023-03-23T18:09:51;16.80;94.40
4429;DHT22;2227;47.810;8.810;2023-03-23T18:12:18;16.80;94.60
4429;DHT22;2227;47.810;8.810;2023-03-23T18:14:45;16.90;94.50
4429;DHT22;2227;47.810;8.810;2023-03-23T18:17:12;17.00;94.40
4429;DHT22;2227;47.810;8.810;2023-03-23T18:19:38;17.00;94.40
4429;DHT22;2227;47.810;8.810;2023-03-23T18:22:05;17.00;94.30
4429;DHT22;2227;47.810;8.810;2023-03-23T18:24:32;16.90;94.60
4429;DHT22;2227;47.810;8.810;2023-03-23T18:26:58;17.00;94.40
4429;DHT22;2227;47.810;8.810;2023-03-23T18:29:25;16.70;94.60
4429;DHT22;2227;47.810;8.810;2023-03-23T18:31:52;16.70;94.90
4429;DHT22;2227;47.810;8.810;2023-03-23T18:34:19;16.70;95.00
4429;DHT22;2227;47.810;8.810;2023-03-23T18:36:45;16.70;95.40
4429;DHT22;2227;47.810;8.810;2023-03-23T18:39:12;16.60;95.30
4429;DHT22;2227;47.810;8.810;2023-03-23T18:41:39;16.70;95.40
4429;DHT22;2227;47.810;8.810;2023-03-23T18:44:06;16.60;95.40
4429;DHT22;2227;47.810;8.810;2023-03-23T18:46:32;16.40;96.10
4429;DHT22;2227;47.810;8.810;2023-03-23T18:48:59;16.30;96.30
4429;DHT22;2227;47.810;8.810;2023-03-23T18:51:26;16.50;96.10
4429;DHT22;2227;47.810;8.810;2023-03-23T18:53:53;16.60;96.00
4429;DHT22;2227;47.810;8.810;2023-03-23T18:56:19;16.60;95.80
4429;DHT22;2227;47.810;8.810;2023-03-23T18:58:46;16.50;96.10
4429;DHT22;2227;47.810;8.810;2023-03-23T19:01:15;16.50;95.90
4429;DHT22;2227;47.810;8.810;2023-03-23T19:03:43;16.60;96.00
4429;DHT22;2227;47.810;8.810;2023-03-23T19:06:25;16.60;96.50
4429;DHT22;2227;47.810;8.810;2023-03-23T19:08:53;16.60;96.40
4429;DHT22;2227;47.810;8.810;2023-03-23T19:11:21;16.70;96.10
4429;DHT22;2227;47.810;8.810;2023-03-23T19:13:51;16.60;96.00
4429;DHT22;2227;47.810;8.810;2023-03-23T19:16:29;16.40;96.40
4429;DHT22;2227;47.810;8.810;2023-03-23T19:18:56;16.10;96.50
4429;DHT22;2227;47.810;8.810;2023-03-23T19:21:23;16.30;96.70
4429;DHT22;2227;47.810;8.810;2023-03-23T19:23:52;16.40;96.50
4429;DHT22;2227;47.810;8.810;2023-03-23T19:26:29;16.40;96.50
4429;DHT22;2227;47.810;8.810;2023-03-23T19:29:02;16.40;96.50
4429;DHT22;2227;47.810;8.810;2023-03-23T19:31:50;16.50;96.60
4429;DHT22;2227;47.810;8.810;2023-03-23T19:34:17;16.50;96.20
4429;DHT22;2227;47.810;8.810;2023-03-23T19:36:43;16.50;96.40
4429;DHT22;2227;47.810;8.810;2023-03-23T19:39:21;16.40;96.40
4429;DHT22;2227;47.810;8.810;2023-03-23T19:41:48;16.50;96.40
4429;DHT22;2227;47.810;8.810;2023-03-23T19:44:16;16.60;96.30
4429;DHT22;2227;47.810;8.810;2023-03-23T19:46:43;16.70;96.50
4429;DHT22;2227;47.810;8.810;2023-03-23T19:49:10;16.60;96.10
4429;DHT22;2227;47.810;8.810;2023-03-23T19:51:37;16.60;95.70
4429;DHT22;2227;47.810;8.810;2023-03-23T19:54:05;16.40;95.80
4429;DHT22;2227;47.810;8.810;2023-03-23T19:56:33;16.30;96.10
4429;DHT22;2227;47.810;8.810;2023-03-23T19:59:01;16.00;96.30
4429;DHT22;2227;47.810;8.810;2023-03-23T20:01:28;16.30;96.20
4429;DHT22;2227;47.810;8.810;2023-03-23T20:03:55;15.90;96.50
4429;DHT22;2227;47.810;8.810;2023-03-23T20:06:25;15.90;96.80
4429;DHT22;2227;47.810;8.810;2023-03-23T20:08:55;16.00;97.30
4429;DHT22;2227;47.810;8.810;2023-03-23T20:11:26;15.90;97.10
4429;DHT22;2227;47.810;8.810;2023-03-23T20:13:53;15.90;97.00
4429;DHT22;2227;47.810;8.810;2023-03-23T20:16:20;15.90;97.20
4429;DHT22;2227;47.810;8.810;2023-03-23T20:18:47;16.00;97.00
4429;DHT22;2227;47.810;8.810;2023-03-23T20:21:18;15.90;97.30
4429;DHT22;2227;47.810;8.810;2023-03-23T20:23:52;15.90;97.50
4429;DHT22;2227;47.810;8.810;2023-03-23T20:26:23;15.90;97.50
4429;DHT22;2227;47.810;8.810;2023-03-23T20:28:51;15.80;98.40
4429;DHT22;2227;47.810;8.810;2023-03-23T20:31:24;15.60;97.80
4429;DHT22;2227;47.810;8.810;2023-03-23T20:34:01;15.60;98.60
4429;DHT22;2227;47.810;8.810;2023-03-23T20:36:30;15.50;98.50
4429;DHT22;2227;47.810;8.810;2023-03-23T20:39:06;15.40;98.30
4429;DHT22;2227;47.810;8.810;2023-03-23T20:41:34;15.30;98.50
4429;DHT22;2227;47.810;8.810;2023-03-23T20:44:08;15.40;98.40
4429;DHT22;2227;47.810;8.810;2023-03-23T20:46:39;15.50;98.70
4429;DHT22;2227;47.810;8.810;2023-03-23T20:49:06;15.40;98.80
4429;DHT22;2227;47.810;8.810;2023-03-23T20:51:33;15.40;98.90
4429;DHT22;2227;47.810;8.810;2023-03-23T20:54:00;15.40;99.20
4429;DHT22;2227;47.810;8.810;2023-03-23T20:56:27;15.30;99.50
4429;DHT22;2227;47.810;8.810;2023-03-23T20:58:54;15.20;99.60
4429;DHT22;2227;47.810;8.810;2023-03-23T21:01:21;15.00;99.70
4429;DHT22;2227;47.810;8.810;2023-03-23T21:03:48;15.00;99.90
4429;DHT22;2227;47.810;8.810;2023-03-23T21:06:17;15.10;99.90
4429;DHT22;2227;47.810;8.810;2023-03-23T21:08:44;15.20;99.90
4429;DHT22;2227;47.810;8.810;2023-03-23T21:11:18;15.10;99.90
4429;DHT22;2227;47.810;8.810;2023-03-23T21:13:45;15.00;99.90
4429;DHT22;2227;47.810;8.810;2023-03-23T21:16:12;15.10;99.90
4429;DHT22;2227;47.810;8.810;2023-03-23T21:18:39;14.90;99.90
4429;DHT22;2227;47.810;8.810;2023-03-23T21:21:07;14.80;99.90
4429;DHT22;2227;47.810;8.810;2023-03-23T21:23:37;14.80;99.90
4429;DHT22;2227;47.810;8.810;2023-03-23T21:26:06;14.80;99.90
4429;DHT22;2227;47.810;8.810;2023-03-23T21:28:33;14.70;99.90
4429;DHT22;2227;47.810;8.810;2023-03-23T21:31:02;14.70;99.90
4429;DHT22;2227;47.810;8.810;2023-03-23T21:33:29;14.70;99.90
4429;DHT22;2227;47.810;8.810;2023-03-23T21:35:56;14.70;99.90
4429;DHT22;2227;47.810;8.810;2023-03-23T21:38:23;14.80;99.90
4429;DHT22;2227;47.810;8.810;2023-03-23T21:40:52;14.70;99.90
4429;DHT22;2227;47.810;8.810;2023-03-23T21:43:20;14.70;99.90
4429;DHT22;2227;47.810;8.810;2023-03-23T21:45:55;14.70;99.90
4429;DHT22;2227;47.810;8.810;2023-03-23T21:48:23;14.60;99.90
4429;DHT22;2227;47.810;8.810;2023-03-23T21:50:50;14.60;99.90
4429;DHT22;2227;47.810;8.810;2023-03-23T21:53:17;14.70;99.90
4429;DHT22;2227;47.810;8.810;2023-03-23T21:55:48;14.60;99.90
4429;DHT22;2227;47.810;8.810;2023-03-23T21:58:22;14.30;99.90
4429;DHT22;2227;47.810;8.810;2023-03-23T22:00:49;14.40;99.90
4429;DHT22;2227;47.810;8.810;2023-03-23T22:03:21;14.40;99.90
4429;DHT22;2227;47.810;8.810;2023-03-23T22:05:50;14.40;99.90
4429;DHT22;2227;47.810;8.810;2023-03-23T22:08:24;14.50;99.90
4429;DHT22;2227;47.810;8.810;2023-03-23T22:10:51;14.40;99.90
4429;DHT22;2227;47.810;8.810;2023-03-23T22:13:31;14.30;99.90
4429;DHT22;2227;47.810;8.810;2023-03-23T22:16:00;14.20;99.90
4429;DHT22;2227;47.810;8.810;2023-03-23T22:18:27;14.20;99.90
4429;DHT22;2227;47.810;8.810;2023-03-23T22:20:54;14.10;99.90
4429;DHT22;2227;47.810;8.810;2023-03-23T22:23:22;14.10;99.90
4429;DHT22;2227;47.810;8.810;2023-03-23T22:25:48;14.10;99.90
4429;DHT22;2227;47.810;8.810;2023-03-23T22:28:16;14.10;99.90
4429;DHT22;2227;47.810;8.810;2023-03-23T22:30:45;13.90;99.90